Relatrios de METAR prximas

 

LPAR - Alverca, Portugal
Distance from station: S 38km
Actualizado: 24/05/2024 16:00
Cu Limpo
Cu Limpo
 Vento de NO
Vento: NO 20 km/h
Temperatura: 26°C
Ponto de Orvalho: 12°C
Humidade: 42%
Barmetro: 1015 hPa
Resumo: Cu Limpo
Visibilidade: greater than 10 km
2024/05/24 15:00 LPAR 241500Z 32011KT CAVOK 26/12 Q1015
LPPT - Lisbon/Portela, Portugal
Distance from station: S 52km
Actualizado: 24/05/2024 16:30
Few Clouds
Few Clouds
 Vento de NO
Vento: NO 19 km/h
Temperatura: 24°C
Ponto de Orvalho: 12°C
Humidade: 47%
Barmetro: 1016 hPa
Nuvens: Few Clouds
Visibilidade: 10 km
Cloud details: Few Clouds 1067 m
2024/05/24 15:30 LPPT 241530Z 31010KT 270V350 9999 FEW035 24/12 Q1016
 
LPST - Sintra/Granja (a, Portugal
Distance from station: SSO 53km
Actualizado: 24/05/2024 16:00
Few Clouds
Few Clouds
 Vento de NO
Vento: NO 19 km/h
Temperatura: 19°C
Ponto de Orvalho: 13°C
Humidade: 68%
Barmetro: 1017 hPa
Nuvens: Few Clouds
Visibilidade: 10 km
Cloud details: Few Clouds 488 m
2024/05/24 15:00 LPST 241500Z 31010KT 9999 FEW016 19/13 Q1017
LPMT - Montijo (por-Afb, Portugal
Distance from station: S 59km
Actualizado: 24/05/2024 16:00
Cu Limpo
Cu Limpo
 Vento de O
Vento: O 15 km/h
Temperatura: 27°C
ndice de Calor: 27°C
Ponto de Orvalho: 14°C
Humidade: 45%
Barmetro: 1015 hPa
Resumo: Cu Limpo
Visibilidade: greater than 10 km
2024/05/24 15:00 LPMT 241500Z 26008KT CAVOK 27/14 Q1015
 
LPCS - Cascais, Portugal
Distance from station: SSO 63km
Actualizado: 24/05/2024 16:30
Few Clouds
Few Clouds
 Vento de ONO
Vento: ONO 17 km/h
Temperatura: 23°C
Ponto de Orvalho: 12°C
Humidade: 50%
Barmetro: 1016 hPa
Nuvens: Few Clouds
Visibilidade: 10 km
Cloud details: Few Clouds 610 m
2024/05/24 15:30 LPCS 241530Z 30009KT 9999 FEW020 23/12 Q1016
LPMR - Monte Real(Por-A, Portugal
Distance from station: N 67km
Actualizado: 24/05/2024 16:00
Few Clouds
Few Clouds
 Vento de NO
Vento: NO 19 km/h
Temperatura: 20°C
Ponto de Orvalho: 13°C
Humidade: 64%
Barmetro: 1016 hPa
Nuvens: Few Clouds
Visibilidade: 10 km
Cloud details: Few Clouds 457 m
2024/05/24 15:00 LPMR 241500Z 31010KT 270V350 9999 FEW015 20/13 Q1016